Time;durP1;ratioP1;P1;durP2;ratioP2;P2;SDS_P1;SDS_P2;PMS_P1;PMS_P2;Temp;Humidity;BMP_temperature;BMP_pressure;BME280_temperature;BME280_humidity;BME280_pressure;Samples;Min_cycle;Max_cycle;Signal;HPM_P1;HPM_P2
2023/06/15 00:00:28;;;;;;;9.18;4.80;;;;;;;21.24;94.62;100245.97;5012391;28;20049;-69
2023/06/15 00:02:54;;;;;;;7.15;4.85;;;;;;;21.06;95.41;100236.53;5012077;28;20088;-69
2023/06/15 00:05:20;;;;;;;8.45;5.13;;;;;;;21.04;95.74;100244.41;5009578;28;20020;-69
2023/06/15 00:07:46;;;;;;;7.50;5.28;;;;;;;20.99;95.57;100248.84;5012547;28;20022;-72
2023/06/15 00:10:11;;;;;;;7.28;5.15;;;;;;;20.77;95.89;100225.44;5012505;28;20072;-68
2023/06/15 00:12:37;;;;;;;8.85;5.60;;;;;;;20.75;96.60;100242.94;5012420;28;20022;-69
2023/06/15 00:15:03;;;;;;;8.05;5.00;;;;;;;20.76;96.73;100236.81;5012391;28;20037;-68
2023/06/15 00:17:29;;;;;;;9.60;5.47;;;;;;;20.69;96.96;100242.97;5011541;28;20034;-68
2023/06/15 00:19:57;;;;;;;8.20;5.30;;;;;;;20.41;97.29;100185.50;5008885;28;20076;-69
2023/06/15 00:22:26;;;;;;;8.98;5.00;;;;;;;20.71;97.03;100243.88;5011636;28;20507;-70
2023/06/15 00:24:52;;;;;;;8.57;5.13;;;;;;;20.77;97.26;100249.06;5011629;28;20377;-68
2023/06/15 00:27:18;;;;;;;7.22;5.50;;;;;;;20.65;97.81;100236.00;5011787;28;20377;-68
2023/06/15 00:29:44;;;;;;;8.55;4.97;;;;;;;20.63;98.26;100240.38;5011188;28;20041;-68
2023/06/15 00:32:09;;;;;;;7.95;5.03;;;;;;;20.62;97.80;100243.88;5011652;28;20033;-69
2023/06/15 00:34:35;;;;;;;7.38;4.97;;;;;;;20.28;98.12;100191.72;5010814;28;20018;-70
2023/06/15 00:37:00;;;;;;;9.70;5.03;;;;;;;20.48;99.09;100247.47;5011461;28;20113;-69
2023/06/15 00:39:26;;;;;;;7.95;5.10;;;;;;;20.45;98.59;100242.28;5010235;28;20030;-68
2023/06/15 00:41:51;;;;;;;8.88;5.07;;;;;;;20.41;98.97;100258.91;5011504;28;20401;-71
2023/06/15 00:44:17;;;;;;;7.65;5.50;;;;;;;20.30;99.16;100242.38;5009226;28;20022;-69
2023/06/15 00:46:42;;;;;;;7.07;5.10;;;;;;;20.23;99.48;100241.53;5011257;28;20390;-68
2023/06/15 00:49:08;;;;;;;5.97;5.13;;;;;;;20.15;99.74;100244.22;5012039;28;20500;-71
2023/06/15 00:51:35;;;;;;;6.50;4.78;;;;;;;20.02;100.00;100242.53;5011637;28;20421;-68
2023/06/15 00:54:02;;;;;;;8.23;5.50;;;;;;;19.96;100.00;100237.34;5009204;28;20026;-68
2023/06/15 00:56:29;;;;;;;9.73;5.20;;;;;;;20.01;100.00;100235.56;5011374;28;20496;-68
2023/06/15 00:58:58;;;;;;;7.10;5.40;;;;;;;19.94;100.00;100241.72;5011269;28;20508;-68
2023/06/15 01:01:24;;;;;;;8.45;5.15;;;;;;;20.03;99.83;100241.69;5011597;28;20030;-70
2023/06/15 01:03:50;;;;;;;9.95;5.30;;;;;;;20.04;99.28;100236.41;5010231;28;20381;-69
2023/06/15 01:06:19;;;;;;;9.80;5.72;;;;;;;20.06;98.91;100236.41;5011449;28;20036;-69
2023/06/15 01:08:47;;;;;;;8.23;5.00;;;;;;;19.99;99.33;100240.81;5011568;28;20083;-68
2023/06/15 01:11:15;;;;;;;8.70;5.20;;;;;;;20.01;99.48;100236.44;5011402;28;20030;-68
2023/06/15 01:13:44;;;;;;;7.43;5.10;;;;;;;20.07;98.82;100238.16;5007908;28;20519;-69
2023/06/15 01:16:17;;;;;;;7.18;4.97;;;;;;;19.92;99.12;100238.25;5011256;28;20087;-68
2023/06/15 01:18:46;;;;;;;6.68;5.55;;;;;;;19.89;99.75;100241.75;5008203;28;20078;-67
2023/06/15 01:21:13;;;;;;;7.60;5.90;;;;;;;19.80;99.85;100240.03;5011232;28;20568;-68
2023/06/15 01:23:49;;;;;;;8.68;5.95;;;;;;;19.79;99.88;100240.00;5011016;28;20036;-69
2023/06/15 01:26:17;;;;;;;7.78;5.38;;;;;;;19.80;100.00;100231.28;5010757;28;20444;-70
2023/06/15 01:28:49;;;;;;;8.25;5.60;;;;;;;19.71;100.00;100233.06;5010843;28;20060;-69
2023/06/15 01:31:17;;;;;;;8.43;5.53;;;;;;;19.35;100.00;100166.00;5009627;28;20469;-69
2023/06/15 01:33:50;;;;;;;6.22;5.25;;;;;;;19.52;100.00;100221.78;5010803;28;20097;-69
2023/06/15 01:36:17;;;;;;;8.02;5.50;;;;;;;19.23;100.00;100175.66;5010905;28;20072;-70
2023/06/15 01:38:45;;;;;;;13.60;6.05;;;;;;;19.41;100.00;100223.56;5010185;28;20443;-69
2023/06/15 01:41:12;;;;;;;6.28;5.60;;;;;;;19.59;100.00;100240.09;5010758;28;20025;-66
2023/06/15 01:43:39;;;;;;;9.07;5.90;;;;;;;19.51;100.00;100240.97;5010717;28;20022;-68
2023/06/15 01:46:06;;;;;;;6.47;5.60;;;;;;;19.50;100.00;100223.56;5010800;28;20022;-69
2023/06/15 01:48:31;;;;;;;8.65;6.03;;;;;;;19.17;100.00;100183.53;5009388;28;20465;-68
2023/06/15 01:50:58;;;;;;;9.18;5.68;;;;;;;19.36;100.00;100220.97;5009273;28;20030;-68
2023/06/15 01:53:24;;;;;;;9.63;6.18;;;;;;;19.28;100.00;100242.81;5010175;28;20484;-70
2023/06/15 01:55:50;;;;;;;9.00;5.90;;;;;;;18.97;100.00;100187.94;5009311;28;20037;-69
2023/06/15 01:58:16;;;;;;;7.07;5.93;;;;;;;19.29;100.00;100240.22;5008031;28;20048;-67
2023/06/15 02:00:46;;;;;;;7.95;6.10;;;;;;;18.99;100.00;100175.72;5010348;28;20476;-69
2023/06/15 02:03:12;;;;;;;8.30;5.43;;;;;;;18.96;100.00;100170.50;5010572;28;20068;-69
2023/06/15 02:05:41;;;;;;;7.22;5.82;;;;;;;19.39;100.00;100233.19;5007218;28;20111;-68
2023/06/15 02:08:10;;;;;;;11.95;6.00;;;;;;;19.46;100.00;100237.50;5009991;28;20030;-68
2023/06/15 02:10:36;;;;;;;9.00;5.97;;;;;;;19.47;100.00;100235.78;5010222;28;20041;-70
2023/06/15 02:13:10;;;;;;;7.05;6.13;;;;;;;19.46;100.00;100239.28;5010020;28;20026;-68
2023/06/15 02:15:36;;;;;;;8.68;6.35;;;;;;;19.47;100.00;100241.88;5010285;28;20042;-73
2023/06/15 02:18:04;;;;;;;8.63;6.10;;;;;;;19.42;100.00;100243.66;5010118;28;20073;-68
2023/06/15 02:20:30;;;;;;;8.48;6.28;;;;;;;19.35;100.00;100228.84;5011940;28;20040;-69
2023/06/15 02:22:59;;;;;;;9.35;6.18;;;;;;;19.34;100.00;100235.81;5026198;28;20041;-69
2023/06/15 02:25:25;;;;;;;9.52;6.35;;;;;;;19.28;100.00;100238.47;5010424;28;20040;-66
2023/06/15 02:27:51;;;;;;;10.27;6.45;;;;;;;19.26;100.00;100241.97;5010120;28;20065;-66
2023/06/15 02:30:17;;;;;;;7.90;6.25;;;;;;;18.79;100.00;100174.00;5009088;28;20109;-67
2023/06/15 02:32:43;;;;;;;9.45;6.75;;;;;;;19.05;100.00;100235.88;5009703;28;20038;-68
2023/06/15 02:35:12;;;;;;;11.48;6.18;;;;;;;18.98;100.00;100223.69;4991201;28;20052;-70
2023/06/15 02:37:39;;;;;;;11.20;6.40;;;;;;;18.82;100.00;100188.81;5009836;28;20397;-69
2023/06/15 02:40:06;;;;;;;10.10;6.28;;;;;;;19.12;100.00;100214.06;5009982;28;20112;-69
2023/06/15 02:42:32;;;;;;;9.70;6.60;;;;;;;19.26;100.00;100228.88;5009817;28;20029;-69
2023/06/15 02:44:57;;;;;;;9.00;6.15;;;;;;;19.14;100.00;100203.59;5009556;28;20017;-68
2023/06/15 02:47:23;;;;;;;8.02;5.95;;;;;;;19.29;100.00;100224.50;5009640;28;20101;-70
2023/06/15 02:49:49;;;;;;;10.02;6.53;;;;;;;19.16;100.00;100218.41;5009492;28;20041;-72
2023/06/15 02:52:15;;;;;;;9.82;6.03;;;;;;;19.07;100.00;100208.84;5007228;28;20022;-68
2023/06/15 02:54:40;;;;;;;10.48;6.18;;;;;;;19.17;100.00;100230.63;5009387;28;20041;-70
2023/06/15 02:57:06;;;;;;;8.82;6.45;;;;;;;19.11;100.00;100220.16;5010090;28;20060;-69
2023/06/15 02:59:35;;;;;;;18.42;6.68;;;;;;;19.07;100.00;100224.53;5009816;28;20075;-67
2023/06/15 03:02:05;;;;;;;18.00;6.40;;;;;;;19.08;100.00;100230.66;5009454;28;20469;-71
2023/06/15 03:04:32;;;;;;;10.25;6.40;;;;;;;19.05;100.00;100235.88;5009684;28;20100;-69
2023/06/15 03:07:03;;;;;;;9.75;6.10;;;;;;;19.04;100.00;100244.59;5009688;28;20076;-69
2023/06/15 03:09:29;;;;;;;9.65;6.40;;;;;;;18.99;100.00;100231.53;5009607;28;20036;-70
2023/06/15 03:11:54;;;;;;;14.73;8.32;;;;;;;18.71;100.00;100189.69;5009611;28;20121;-68
2023/06/15 03:14:20;;;;;;;17.73;10.80;;;;;;;18.99;100.00;100228.03;5009677;28;20018;-70
2023/06/15 03:16:47;;;;;;;12.65;9.02;;;;;;;18.95;100.00;100213.22;5009187;28;20029;-69
2023/06/15 03:19:17;;;;;;;12.68;9.85;;;;;;;19.01;100.00;100223.69;5009321;28;20045;-69
2023/06/15 03:21:43;;;;;;;17.33;9.93;;;;;;;18.98;100.00;100224.56;5009577;28;20025;-69
2023/06/15 03:24:09;;;;;;;20.15;10.05;;;;;;;19.05;100.00;100222.78;5009675;28;20496;-68
2023/06/15 03:26:38;;;;;;;17.30;9.60;;;;;;;19.08;100.00;100228.03;5007084;28;20026;-70
2023/06/15 03:29:05;;;;;;;17.38;8.60;;;;;;;18.99;100.00;100204.50;5009335;28;20061;-70
2023/06/15 03:31:33;;;;;;;15.95;8.68;;;;;;;19.14;100.00;100225.41;5009453;28;20080;-69
2023/06/15 03:34:02;;;;;;;18.52;9.18;;;;;;;19.18;100.00;100214.06;5009436;28;20030;-70
2023/06/15 03:36:31;;;;;;;16.73;8.98;;;;;;;19.10;100.00;100207.09;5009098;28;20025;-71
2023/06/15 03:38:57;;;;;;;12.63;7.75;;;;;;;19.27;100.00;100225.38;5006703;28;20037;-69
2023/06/15 03:41:23;;;;;;;12.57;8.20;;;;;;;19.22;100.00;100213.16;5010988;28;20022;-72
2023/06/15 03:43:49;;;;;;;12.60;8.75;;;;;;;19.31;100.00;100227.09;5012571;28;20529;-73
2023/06/15 03:46:14;;;;;;;14.40;8.20;;;;;;;19.32;100.00;100229.72;5011678;28;20022;-69
2023/06/15 03:48:40;;;;;;;17.77;7.97;;;;;;;19.36;100.00;100241.03;5013018;28;20456;-69
2023/06/15 03:51:05;;;;;;;16.27;7.93;;;;;;;19.33;100.00;100226.22;5012633;28;20037;-68
2023/06/15 03:53:31;;;;;;;15.10;8.13;;;;;;;19.44;100.00;100233.16;5012798;28;20033;-69
2023/06/15 03:55:56;;;;;;;13.75;8.20;;;;;;;19.45;100.00;100229.66;5013129;28;20026;-74
2023/06/15 03:58:24;;;;;;;11.95;8.27;;;;;;;19.43;100.00;100231.41;5012237;28;20025;-68
2023/06/15 04:00:50;;;;;;;15.15;8.43;;;;;;;19.47;100.00;100233.16;5012167;28;20476;-68
2023/06/15 04:03:16;;;;;;;16.95;9.30;;;;;;;19.49;100.00;100218.31;5010091;28;20033;-68
2023/06/15 04:05:42;;;;;;;19.48;8.95;;;;;;;19.61;100.00;100214.78;5005037;28;20029;-69
2023/06/15 04:08:08;;;;;;;23.77;7.72;;;;;;;19.80;100.00;100221.69;5003738;28;20400;-71
2023/06/15 04:10:34;;;;;;;19.83;8.95;;;;;;;19.88;100.00;100221.66;5000016;28;20551;-69
2023/06/15 04:12:59;;;;;;;19.67;7.68;;;;;;;19.99;100.00;100222.47;5003434;28;20048;-67
2023/06/15 04:15:25;;;;;;;20.83;7.45;;;;;;;20.10;100.00;100230.28;5012784;28;20064;-69
2023/06/15 04:17:50;;;;;;;23.70;7.40;;;;;;;20.13;100.00;100216.28;5012531;28;20092;-68
2023/06/15 04:20:16;;;;;;;19.92;7.93;;;;;;;20.30;100.00;100224.00;5012127;28;20064;-68
2023/06/15 04:22:41;;;;;;;16.15;7.35;;;;;;;20.19;100.00;100198.75;5012682;28;20487;-71
2023/06/15 04:25:08;;;;;;;17.55;6.35;;;;;;;20.40;100.00;100222.19;5012958;28;20033;-70
2023/06/15 04:27:34;;;;;;;14.50;6.25;;;;;;;20.20;100.00;100190.03;5012372;28;20478;-68
2023/06/15 04:30:03;;;;;;;14.13;5.57;;;;;;;20.36;99.99;100239.69;5012968;28;20034;-68
2023/06/15 04:32:30;;;;;;;11.57;6.43;;;;;;;20.30;99.87;100211.78;5012911;28;20033;-68
2023/06/15 04:35:21;;;;;;;13.43;6.35;;;;;;;20.45;100.00;100229.16;5012725;28;20033;-68
2023/06/15 04:37:47;;;;;;;12.30;6.60;;;;;;;20.52;100.00;100238.72;5007782;28;20045;-70
2023/06/15 04:40:12;;;;;;;13.50;6.20;;;;;;;20.47;99.70;100218.66;5009775;28;20682;-68
2023/06/15 04:42:40;;;;;;;12.05;6.20;;;;;;;20.57;99.88;100235.19;5007337;28;20048;-68
2023/06/15 04:45:07;;;;;;;14.80;7.75;;;;;;;20.65;99.92;100238.63;5009772;28;20034;-71
2023/06/15 04:47:32;;;;;;;17.73;7.85;;;;;;;20.69;99.77;100235.94;5009828;28;20034;-68
2023/06/15 04:49:58;;;;;;;24.17;7.97;;;;;;;20.76;99.98;100236.81;5009995;28;20040;-68
2023/06/15 04:52:23;;;;;;;27.45;8.35;;;;;;;20.82;100.00;100239.38;5006701;28;20050;-73
2023/06/15 04:54:49;;;;;;;25.73;8.73;;;;;;;20.90;99.69;100241.94;5009382;28;20042;-71
2023/06/15 04:57:14;;;;;;;22.02;8.27;;;;;;;20.97;99.10;100241.00;5009790;28;20041;-67
2023/06/15 04:59:40;;;;;;;25.42;8.20;;;;;;;21.04;99.05;100236.53;5009861;28;20397;-70
2023/06/15 05:02:06;;;;;;;38.95;9.20;;;;;;;21.10;99.14;100243.50;5009717;28;20026;-71
2023/06/15 05:04:32;;;;;;;22.67;8.50;;;;;;;21.11;99.33;100248.72;5009709;28;20529;-69
2023/06/15 05:06:57;;;;;;;35.40;9.15;;;;;;;20.76;100.00;100188.72;5008342;28;20100;-69
2023/06/15 05:09:23;;;;;;;27.35;8.50;;;;;;;21.19;100.00;100246.03;5008610;28;20044;-68
2023/06/15 05:11:48;;;;;;;47.67;9.20;;;;;;;21.29;100.00;100254.66;5011941;28;20030;-68
2023/06/15 05:14:14;;;;;;;47.85;9.80;;;;;;;21.38;100.00;100253.69;4997219;28;20474;-68
2023/06/15 05:16:39;;;;;;;23.88;9.02;;;;;;;21.45;100.00;100244.88;4992231;28;20084;-68
2023/06/15 05:19:05;;;;;;;24.33;8.20;;;;;;;21.57;99.80;100249.13;5006902;28;20058;-71
2023/06/15 05:21:30;;;;;;;34.55;8.77;;;;;;;21.51;99.53;100231.66;5010725;28;20362;-66
2023/06/15 05:23:55;;;;;;;33.47;9.35;;;;;;;21.68;99.26;100254.25;5010397;28;20514;-67
2023/06/15 05:26:21;;;;;;;40.25;9.52;;;;;;;21.41;99.52;100199.38;5011401;28;20533;-65
2023/06/15 05:28:46;;;;;;;33.05;9.23;;;;;;;21.78;99.80;100262.03;5011226;28;20540;-66
2023/06/15 05:31:12;;;;;;;32.08;8.77;;;;;;;21.18;99.91;100155.03;5005364;28;20125;-67
2023/06/15 05:33:37;;;;;;;25.65;8.35;;;;;;;21.92;99.58;100264.47;5015603;28;20038;-69
2023/06/15 05:36:03;;;;;;;30.42;8.38;;;;;;;21.69;98.59;100200.84;4995446;28;20034;-67
2023/06/15 05:38:29;;;;;;;31.63;9.35;;;;;;;22.07;97.26;100246.72;4991557;28;20026;-73
2023/06/15 05:40:55;;;;;;;30.27;8.02;;;;;;;22.11;96.16;100246.66;4991559;28;20022;-70
2023/06/15 05:43:20;;;;;;;26.63;7.47;;;;;;;22.30;95.62;100249.88;4991500;28;20517;-65
2023/06/15 05:45:47;;;;;;;17.45;7.28;;;;;;;22.40;94.99;100257.69;4991504;28;20022;-67
2023/06/15 05:48:13;;;;;;;22.13;8.27;;;;;;;22.47;95.14;100240.91;4991617;28;20030;-63
2023/06/15 05:50:39;;;;;;;25.73;7.53;;;;;;;22.58;93.45;100257.41;4995174;28;20026;-67
2023/06/15 05:53:05;;;;;;;17.80;7.68;;;;;;;22.25;94.30;100203.53;5000444;28;20041;-67
2023/06/15 05:55:30;;;;;;;23.83;7.70;;;;;;;22.52;95.43;100251.34;4991048;28;20027;-66
2023/06/15 05:57:55;;;;;;;19.15;7.05;;;;;;;22.66;95.72;100259.91;4990684;28;20034;-67
2023/06/15 06:00:25;;;;;;;20.10;6.47;;;;;;;22.72;94.61;100248.41;4989932;28;20049;-69
2023/06/15 06:02:51;;;;;;;13.77;6.50;;;;;;;22.59;94.01;100211.78;4990850;28;20630;-65
2023/06/15 06:05:16;;;;;;;14.98;6.43;;;;;;;22.56;93.80;100203.94;4990666;28;20019;-65
2023/06/15 06:07:45;;;;;;;13.23;5.47;;;;;;;23.04;92.33;100255.75;4991142;28;20058;-64
2023/06/15 06:10:10;;;;;;;27.45;5.93;;;;;;;23.05;90.67;100244.31;4991193;28;20105;-64
2023/06/15 06:12:36;;;;;;;12.45;5.78;;;;;;;23.08;88.60;100243.41;4999968;28;20117;-67
2023/06/15 06:15:01;;;;;;;16.70;5.93;;;;;;;23.31;88.82;100261.41;5010553;28;20108;-68
2023/06/15 06:17:27;;;;;;;14.43;5.57;;;;;;;23.38;88.58;100256.91;5010162;28;20025;-68
2023/06/15 06:19:52;;;;;;;9.60;5.80;;;;;;;23.31;88.94;100256.16;5010102;28;20050;-66
2023/06/15 06:22:18;;;;;;;6.63;5.03;;;;;;;23.39;87.65;100256.88;4999983;28;20635;-67
2023/06/15 06:24:43;;;;;;;8.45;4.82;;;;;;;23.45;85.73;100262.91;4994499;28;20030;-64
2023/06/15 06:27:09;;;;;;;9.70;5.10;;;;;;;23.53;85.31;100251.34;5000566;28;20516;-68
2023/06/15 06:29:34;;;;;;;10.90;5.53;;;;;;;23.56;84.12;100260.94;4994298;28;20022;-67
2023/06/15 06:32:00;;;;;;;12.60;5.50;;;;;;;23.59;85.39;100268.81;5010461;28;20034;-66
2023/06/15 06:34:25;;;;;;;16.02;5.47;;;;;;;23.50;83.21;100245.25;5009837;28;20544;-66
2023/06/15 06:36:51;;;;;;;15.00;5.30;;;;;;;23.53;84.63;100250.47;5010036;28;20021;-68
2023/06/15 06:39:16;;;;;;;11.73;5.35;;;;;;;23.73;82.03;100269.38;5009740;28;20057;-71
2023/06/15 06:41:42;;;;;;;8.18;4.80;;;;;;;23.60;80.52;100262.59;5009509;28;20038;-65
2023/06/15 06:44:08;;;;;;;10.98;4.93;;;;;;;23.65;80.51;100259.88;5009780;28;20022;-65
2023/06/15 06:46:33;;;;;;;13.07;5.13;;;;;;;23.81;80.26;100276.25;5010227;28;20030;-64
2023/06/15 06:48:59;;;;;;;15.13;5.55;;;;;;;23.96;80.49;100277.72;5009896;28;20026;-67
2023/06/15 06:51:24;;;;;;;16.75;5.68;;;;;;;24.15;79.31;100267.63;5009745;28;20539;-66
2023/06/15 06:53:50;;;;;;;19.92;6.05;;;;;;;23.92;78.87;100216.28;5009598;28;20052;-64
2023/06/15 06:56:15;;;;;;;18.13;5.88;;;;;;;24.35;78.74;100275.09;5010240;28;20064;-65
2023/06/15 06:58:41;;;;;;;15.27;5.32;;;;;;;24.08;79.55;100208.03;5010558;28;20065;-65
2023/06/15 07:01:06;;;;;;;14.52;5.35;;;;;;;24.47;78.31;100268.66;5009937;28;20069;-68
2023/06/15 07:03:31;;;;;;;11.82;4.68;;;;;;;24.54;77.11;100278.16;5010165;28;20477;-66
2023/06/15 07:05:59;;;;;;;8.05;4.90;;;;;;;24.46;76.83;100275.72;5010337;28;20065;-65
2023/06/15 07:08:24;;;;;;;7.95;4.70;;;;;;;24.56;76.34;100260.50;5010439;28;20077;-65
2023/06/15 07:10:50;;;;;;;10.30;4.65;;;;;;;24.65;74.63;100260.34;5010143;28;20544;-65
2023/06/15 07:13:15;;;;;;;9.07;4.40;;;;;;;24.52;75.47;100243.91;5010393;28;20385;-65
2023/06/15 07:15:41;;;;;;;11.80;5.03;;;;;;;23.94;76.38;100166.16;5011107;28;20041;-64
2023/06/15 07:18:06;;;;;;;13.18;4.97;;;;;;;24.61;78.59;100260.41;5013504;28;20539;-70
2023/06/15 07:20:31;;;;;;;16.67;5.57;;;;;;;24.65;79.73;100259.44;5013874;28;20030;-66
2023/06/15 07:22:57;;;;;;;11.65;5.07;;;;;;;24.65;76.73;100262.09;5013959;28;20100;-65
2023/06/15 07:25:22;;;;;;;13.30;5.43;;;;;;;24.75;80.30;100250.41;5013443;28;20071;-64
2023/06/15 07:27:48;;;;;;;17.85;5.15;;;;;;;24.85;76.14;100251.03;5009631;28;20037;-65
2023/06/15 07:30:13;;;;;;;14.65;5.50;;;;;;;24.78;77.22;100247.69;5013293;28;20033;-65
2023/06/15 07:32:39;;;;;;;8.15;4.85;;;;;;;24.94;75.01;100242.88;5014132;28;20136;-65
2023/06/15 07:35:04;;;;;;;17.85;6.45;;;;;;;25.03;75.15;100241.75;5012310;28;20022;-70
2023/06/15 07:37:30;;;;;;;17.70;7.00;;;;;;;25.14;74.58;100228.28;5013661;28;20077;-65
2023/06/15 07:39:55;;;;;;;13.30;7.05;;;;;;;25.18;72.92;100211.41;5013708;28;20088;-68
2023/06/15 07:42:21;;;;;;;12.90;6.43;;;;;;;25.28;73.75;100217.31;5014012;28;20058;-65
2023/06/15 07:44:46;;;;;;;13.32;6.50;;;;;;;25.00;77.08;100155.56;5013739;28;20025;-70
2023/06/15 07:47:11;;;;;;;12.43;5.68;;;;;;;25.43;72.23;100208.13;5013640;28;20503;-65
2023/06/15 07:49:37;;;;;;;20.85;6.13;;;;;;;25.61;74.21;100220.81;5013398;28;20034;-65
2023/06/15 07:52:02;;;;;;;11.35;5.80;;;;;;;25.79;70.89;100218.50;5013464;28;20022;-65
2023/06/15 07:54:28;;;;;;;12.73;6.05;;;;;;;25.68;73.64;100209.13;5013125;28;20030;-64
2023/06/15 07:56:53;;;;;;;8.85;5.03;;;;;;;25.75;70.80;100206.31;5011192;28;20113;-64
2023/06/15 07:59:19;;;;;;;9.95;4.75;;;;;;;25.86;69.68;100220.06;5013154;28;20057;-64
2023/06/15 08:01:44;;;;;;;11.57;4.47;;;;;;;25.86;70.78;100213.91;5013546;28;20124;-65
2023/06/15 08:04:10;;;;;;;10.55;4.63;;;;;;;25.92;70.03;100214.59;5013097;28;20076;-66
2023/06/15 08:06:35;;;;;;;12.23;4.95;;;;;;;25.98;72.26;100217.03;5013395;28;20112;-69
2023/06/15 08:09:01;;;;;;;11.77;4.97;;;;;;;26.08;74.28;100209.72;5013070;28;20030;-68
2023/06/15 08:11:27;;;;;;;8.52;4.97;;;;;;;26.15;70.91;100211.22;5013011;28;20113;-64
2023/06/15 08:13:53;;;;;;;10.35;5.03;;;;;;;25.86;70.70;100163.66;5013502;28;20518;-65
2023/06/15 08:16:18;;;;;;;9.73;4.82;;;;;;;25.90;69.89;100166.16;5013125;28;20113;-66
2023/06/15 08:18:44;;;;;;;6.85;4.75;;;;;;;25.85;71.49;100160.16;5012746;28;20050;-64
2023/06/15 08:21:09;;;;;;;8.02;4.93;;;;;;;26.18;69.98;100204.13;5012809;28;20033;-65
2023/06/15 08:23:35;;;;;;;6.68;3.97;;;;;;;25.66;69.03;100159.88;5012575;28;20464;-66
2023/06/15 08:26:00;;;;;;;10.13;5.47;;;;;;;25.81;69.47;100206.13;5012743;28;20033;-65
2023/06/15 08:28:26;;;;;;;8.57;4.60;;;;;;;25.91;69.96;100209.34;5012472;28;20046;-70
2023/06/15 08:30:52;;;;;;;10.32;4.57;;;;;;;25.55;68.41;100141.69;5012895;28;20026;-65
2023/06/15 08:33:18;;;;;;;8.57;4.50;;;;;;;25.99;69.67;100194.97;5012625;28;20067;-66
2023/06/15 08:35:44;;;;;;;5.32;3.67;;;;;;;26.16;69.98;100210.31;5012662;28;20022;-66
2023/06/15 08:38:09;;;;;;;7.25;3.50;;;;;;;26.23;70.33;100211.00;5012646;28;20026;-64
2023/06/15 08:40:35;;;;;;;4.20;3.15;;;;;;;26.29;68.49;100197.59;5012580;28;20033;-65
2023/06/15 08:43:03;;;;;;;5.95;3.28;;;;;;;26.32;66.16;100208.06;5012651;28;20033;-66
2023/06/15 08:45:38;;;;;;;4.40;2.65;;;;;;;26.46;68.00;100212.03;5011366;28;20026;-65
2023/06/15 08:48:05;;;;;;;3.38;2.80;;;;;;;26.54;65.47;100214.41;5007516;28;20050;-67
2023/06/15 08:50:32;;;;;;;5.97;2.97;;;;;;;26.62;67.06;100205.28;5005305;28;20552;-67
2023/06/15 08:52:59;;;;;;;7.60;3.35;;;;;;;26.72;64.31;100211.16;5008140;28;20607;-66
2023/06/15 08:55:25;;;;;;;4.30;2.72;;;;;;;26.75;62.65;100207.56;5011023;28;20026;-66
2023/06/15 08:57:51;;;;;;;5.40;2.80;;;;;;;26.83;62.45;100202.00;5004953;28;20042;-67
2023/06/15 09:00:17;;;;;;;5.75;3.22;;;;;;;26.88;64.63;100208.00;5010651;28;20056;-70
2023/06/15 09:02:46;;;;;;;7.10;2.85;;;;;;;27.04;64.58;100209.19;5010635;28;20118;-64
2023/06/15 09:05:12;;;;;;;5.07;3.42;;;;;;;27.08;63.77;100194.91;5004531;28;20018;-66
2023/06/15 09:07:38;;;;;;;8.45;3.28;;;;;;;27.27;64.53;100208.34;5002753;28;20114;-66
2023/06/15 09:10:10;;;;;;;3.97;2.90;;;;;;;27.42;62.46;100204.28;5002352;28;20073;-70
2023/06/15 09:12:42;;;;;;;7.03;3.38;;;;;;;27.64;60.63;100199.97;5001743;28;20551;-65
2023/06/15 09:15:08;;;;;;;5.10;2.55;;;;;;;27.59;59.33;100187.75;5008391;28;20033;-69
2023/06/15 09:17:36;;;;;;;5.57;2.50;;;;;;;27.60;57.62;100191.25;5006373;28;20065;-69
2023/06/15 09:20:02;;;;;;;4.78;2.58;;;;;;;27.29;60.97;100189.72;5011822;28;20038;-65
2023/06/15 09:22:29;;;;;;;4.90;2.70;;;;;;;26.90;58.41;100127.53;4995785;28;20037;-68
2023/06/15 09:24:54;;;;;;;4.43;3.03;;;;;;;27.29;58.73;100172.06;4991715;28;20030;-69
2023/06/15 09:27:20;;;;;;;4.15;2.30;;;;;;;27.23;58.62;100148.44;5003922;28;20030;-65
2023/06/15 09:30:03;;;;;;;4.15;2.80;;;;;;;27.62;58.35;100172.66;4996422;28;20605;-67
2023/06/15 09:32:29;;;;;;;6.03;2.55;;;;;;;27.70;57.80;100171.44;4996764;28;20449;-67
2023/06/15 09:35:03;;;;;;;4.32;2.50;;;;;;;27.65;58.54;100176.03;5002531;28;20034;-68
2023/06/15 09:37:29;;;;;;;11.80;3.00;;;;;;;27.83;59.28;100185.06;4991446;28;20029;-65
2023/06/15 09:39:56;;;;;;;4.53;2.80;;;;;;;28.00;58.89;100170.25;5008449;28;20026;-69
2023/06/15 09:42:26;;;;;;;3.72;2.95;;;;;;;28.18;58.44;100172.19;5010749;28;20480;-67
2023/06/15 09:44:59;;;;;;;4.35;3.13;;;;;;;28.25;60.73;100176.31;5010103;28;20025;-70
2023/06/15 09:47:31;;;;;;;3.83;2.70;;;;;;;28.03;60.90;100180.75;5010539;28;20100;-67
2023/06/15 09:50:00;;;;;;;4.55;3.00;;;;;;;28.06;58.36;100165.63;5010402;28;20129;-67
2023/06/15 09:52:26;;;;;;;3.58;2.70;;;;;;;28.17;57.27;100156.34;5009510;28;20578;-70
2023/06/15 09:54:53;;;;;;;4.05;2.58;;;;;;;28.22;59.44;100168.47;4996645;28;20035;-66
2023/06/15 09:57:19;;;;;;;4.43;2.88;;;;;;;27.88;59.67;100156.56;5002773;28;20390;-70
2023/06/15 09:59:48;;;;;;;4.15;2.88;;;;;;;27.79;60.77;100156.06;4990645;28;20487;-68
2023/06/15 10:02:17;;;;;;;3.53;2.80;;;;;;;27.56;61.77;100150.72;4990067;28;20072;-66
2023/06/15 10:04:47;;;;;;;5.00;2.70;;;;;;;27.43;62.32;100171.56;4989734;28;20493;-70
2023/06/15 10:07:18;;;;;;;4.63;3.15;;;;;;;27.67;62.42;100162.72;4990828;28;20113;-71
2023/06/15 10:09:49;;;;;;;3.83;2.50;;;;;;;27.59;61.08;100100.25;4990951;28;20105;-70
2023/06/15 10:12:25;;;;;;;4.75;2.65;;;;;;;27.98;60.77;100141.13;4990837;28;20029;-71
2023/06/15 10:15:09;;;;;;;6.35;3.08;;;;;;;28.25;61.27;100130.31;4989968;28;20049;-69
2023/06/15 10:17:37;;;;;;;5.53;3.20;;;;;;;28.25;59.00;100149.78;4994244;28;20042;-68
2023/06/15 10:20:13;;;;;;;6.68;3.08;;;;;;;28.04;58.28;100094.97;4971268;28;20062;-67
2023/06/15 10:22:50;;;;;;;7.68;2.88;;;;;;;28.18;59.79;100137.69;4991131;28;20037;-68
2023/06/15 10:25:36;;;;;;;5.13;2.70;;;;;;;28.05;59.38;100094.00;5018271;28;20042;-68
2023/06/15 10:28:09;;;;;;;6.00;2.65;;;;;;;28.11;60.32;100140.66;5007339;28;20117;-69
2023/06/15 10:30:57;;;;;;;5.35;2.80;;;;;;;28.46;61.55;100136.50;5001723;28;20136;-68
2023/06/15 10:34:05;;;;;;;4.30;2.72;;;;;;;28.75;57.62;100126.47;4964808;28;20529;-69
2023/06/15 10:36:56;;;;;;;4.05;2.67;;;;;;;28.81;58.28;100130.63;4891843;29;20040;-69
2023/06/15 10:39:31;;;;;;;5.30;2.85;;;;;;;28.57;61.27;100106.84;4890762;29;20032;-69
2023/06/15 10:41:57;;;;;;;4.63;2.95;;;;;;;28.58;59.06;100125.34;4891125;29;20049;-70
2023/06/15 10:44:31;;;;;;;5.20;2.70;;;;;;;28.54;60.40;100117.63;4876104;29;20044;-68
2023/06/15 10:47:10;;;;;;;7.13;2.83;;;;;;;28.52;60.52;100117.66;4890603;29;20529;-69
2023/06/15 10:49:36;;;;;;;3.60;2.70;;;;;;;28.38;59.15;100123.56;4890061;29;20064;-65
2023/06/15 10:52:05;;;;;;;4.38;3.10;;;;;;;28.30;59.76;100127.47;4877686;29;20048;-69
2023/06/15 10:54:31;;;;;;;8.13;2.90;;;;;;;28.37;61.73;100121.00;4895541;29;20467;-69
2023/06/15 10:57:00;;;;;;;3.67;2.85;;;;;;;28.10;62.30;100113.25;4895787;29;20036;-68
2023/06/15 10:59:46;;;;;;;4.35;2.60;;;;;;;27.85;61.44;100124.88;4884171;29;20614;-69
2023/06/15 11:02:31;;;;;;;5.32;3.00;;;;;;;27.68;62.00;100120.22;4895698;29;20052;-69
2023/06/15 11:05:09;;;;;;;4.22;3.03;;;;;;;27.31;65.42;100073.91;4895547;29;20486;-70
2023/06/15 11:07:37;;;;;;;5.72;3.03;;;;;;;27.61;64.88;100126.69;4892234;29;20052;-68
2023/06/15 11:10:11;;;;;;;5.22;3.50;;;;;;;27.71;65.61;100112.13;4905220;29;20040;-70
2023/06/15 11:12:39;;;;;;;4.53;3.28;;;;;;;27.81;65.44;100117.09;4947059;28;20053;-69
2023/06/15 11:15:06;;;;;;;4.60;3.25;;;;;;;27.72;65.64;100118.31;4994383;28;20026;-71
2023/06/15 11:17:55;;;;;;;3.80;3.25;;;;;;;27.71;65.34;100113.94;4993586;28;20412;-68
2023/06/15 11:20:39;;;;;;;3.45;2.85;;;;;;;27.76;62.31;100112.84;4990829;28;20050;-72